createdAt,value
2018-08-18T00:00:38.403Z,57.70
2018-08-18T00:05:21.947Z,56.34
2018-08-18T00:10:08.284Z,54.67
2018-08-18T00:14:51.814Z,57.71
2018-08-18T00:19:36.153Z,57.40
2018-08-18T00:24:19.704Z,57.88
2018-08-18T00:29:03.212Z,57.78
2018-08-18T00:33:46.776Z,58.13
2018-08-18T00:38:30.304Z,58.09
2018-08-18T00:43:13.977Z,59.63
2018-08-18T00:47:57.445Z,59.71
2018-08-18T00:52:41.117Z,59.25
2018-08-18T00:57:33.405Z,60.02
2018-08-18T01:02:16.795Z,57.39
2018-08-18T01:07:04.881Z,59.40
2018-08-18T01:11:48.627Z,59.93
2018-08-18T01:16:31.822Z,59.65
2018-08-18T01:21:15.165Z,58.59
2018-08-18T01:25:58.716Z,61.37
2018-08-18T01:30:42.205Z,61.26
2018-08-18T01:35:26.689Z,65.17
2018-08-18T01:40:10.047Z,63.68
2018-08-18T01:44:55.427Z,65.74
2018-08-18T01:49:38.899Z,65.10
2018-08-18T01:54:22.327Z,64.57
2018-08-18T01:59:05.740Z,64.51
2018-08-18T02:03:49.383Z,69.17
2018-08-18T02:08:40.375Z,65.99
2018-08-18T02:13:23.948Z,68.47
2018-08-18T02:18:07.350Z,69.67
2018-08-18T02:22:50.891Z,69.25
2018-08-18T02:27:34.239Z,69.29
2018-08-18T02:32:28.618Z,70.06
2018-08-18T02:37:11.902Z,68.34
2018-08-18T02:42:02.943Z,70.02
2018-08-18T02:46:46.366Z,70.64
2018-08-18T02:51:31.645Z,70.76
2018-08-18T02:56:14.941Z,73.10
2018-08-18T03:00:58.390Z,72.45
2018-08-18T03:05:41.910Z,70.85
2018-08-18T03:10:26.732Z,70.99
2018-08-18T03:15:10.180Z,73.65
2018-08-18T03:19:53.514Z,72.25
2018-08-18T03:24:36.807Z,72.24
2018-08-18T03:29:21.594Z,73.28
2018-08-18T03:34:06.035Z,74.89
2018-08-18T03:38:49.541Z,70.35
2018-08-18T03:43:33.073Z,70.18
2018-08-18T03:48:16.410Z,70.40
2018-08-18T03:52:59.866Z,69.29
2018-08-18T03:57:47.323Z,71.53
2018-08-18T04:02:30.792Z,71.46
2018-08-18T04:07:14.236Z,71.88
2018-08-18T04:12:01.200Z,71.20
2018-08-18T04:16:49.663Z,70.81
2018-08-18T04:21:33.779Z,71.55
2018-08-18T04:26:17.053Z,72.26
2018-08-18T04:31:00.518Z,72.86
2018-08-18T04:35:48.525Z,70.14
2018-08-18T04:40:31.866Z,73.54
2018-08-18T04:45:17.436Z,72.38
2018-08-18T04:50:00.816Z,70.93
2018-08-18T04:54:45.412Z,70.47
2018-08-18T04:59:28.831Z,69.16
2018-08-18T05:04:15.954Z,67.78
2018-08-18T05:09:01.599Z,68.31
2018-08-18T05:13:45.030Z,68.83
2018-08-18T05:18:28.474Z,68.39
2018-08-18T05:23:22.683Z,67.94
2018-08-18T05:28:06.180Z,67.10
2018-08-18T05:32:49.877Z,67.86
2018-08-18T05:37:33.257Z,66.71
2018-08-18T05:42:16.963Z,66.72
2018-08-18T05:47:00.280Z,65.32
2018-08-18T05:51:47.416Z,63.36
2018-08-18T05:56:30.745Z,63.54
2018-08-18T06:01:25.079Z,63.43
2018-08-18T06:06:08.533Z,62.89
2018-08-18T06:10:51.867Z,62.29
2018-08-18T06:15:35.176Z,61.89
2018-08-18T06:20:18.622Z,62.83
2018-08-18T06:25:01.932Z,62.24
2018-08-18T06:29:45.307Z,60.46
2018-08-18T06:34:31.545Z,60.50
2018-08-18T06:39:14.884Z,59.53
2018-08-18T06:43:58.392Z,59.42
2018-08-18T06:48:41.923Z,59.30
2018-08-18T06:53:28.726Z,59.27
2018-08-18T06:58:12.354Z,60.51
2018-08-18T07:02:55.827Z,56.82
2018-08-18T07:07:39.183Z,55.81
2018-08-18T07:12:22.738Z,55.22
2018-08-18T07:17:06.252Z,57.14
2018-08-18T07:21:49.809Z,53.98
2018-08-18T07:26:33.390Z,52.80
2018-08-18T07:31:19.940Z,54.36
2018-08-18T07:36:03.344Z,54.38
2018-08-18T07:40:48.902Z,54.67
2018-08-18T07:45:33.027Z,54.54
2018-08-18T07:50:16.389Z,50.54
2018-08-18T07:54:59.840Z,53.62
2018-08-18T07:59:43.301Z,50.20
2018-08-18T08:04:27.718Z,51.16
2018-08-18T08:09:12.206Z,50.05
2018-08-18T08:13:55.709Z,49.44
2018-08-18T08:18:39.131Z,52.70
2018-08-18T08:23:22.593Z,49.47
2018-08-18T08:28:06.750Z,49.77
2018-08-18T08:33:01.058Z,48.35
2018-08-18T08:37:45.355Z,46.98
2018-08-18T08:42:29.153Z,47.84
2018-08-18T08:47:18.388Z,47.84
2018-08-18T08:52:03.895Z,49.23
2018-08-18T08:56:48.100Z,47.54
2018-08-18T09:01:31.506Z,49.45
2018-08-18T09:06:15.119Z,48.06
2018-08-18T09:10:59.146Z,49.02
2018-08-18T09:15:42.619Z,46.19
2018-08-18T09:20:27.394Z,48.10
2018-08-18T09:25:15.832Z,48.25
2018-08-18T09:29:59.200Z,48.13
2018-08-18T09:34:57.277Z,49.53
2018-08-18T09:39:40.750Z,47.24
2018-08-18T09:44:29.993Z,46.52
2018-08-18T09:49:13.445Z,46.18
2018-08-18T09:53:57.085Z,46.56
2018-08-18T09:58:40.455Z,46.79
2018-08-18T10:03:24.053Z,48.37
2018-08-18T10:08:08.332Z,44.08
2018-08-18T10:12:51.940Z,45.25
2018-08-18T10:17:35.306Z,47.87
2018-08-18T10:22:18.973Z,45.47
2018-08-18T10:27:05.291Z,46.96
2018-08-18T10:31:56.108Z,45.21
2018-08-18T10:36:45.376Z,43.99
2018-08-18T10:41:28.965Z,43.32
2018-08-18T10:46:12.331Z,43.55
2018-08-18T10:51:17.656Z,45.23
2018-08-18T10:56:01.114Z,44.50
2018-08-18T11:00:44.849Z,45.98
2018-08-18T11:05:29.346Z,43.95
2018-08-18T11:10:12.822Z,46.40
2018-08-18T11:15:01.486Z,43.79
2018-08-18T11:19:45.944Z,42.48
2018-08-18T11:24:29.407Z,43.42
2018-08-18T11:29:18.963Z,44.06
2018-08-18T11:34:02.620Z,41.16
2018-08-18T11:38:46.131Z,42.45
2018-08-18T11:43:32.260Z,42.16
2018-08-18T11:48:25.989Z,41.54
2018-08-18T11:53:09.356Z,38.97
2018-08-18T11:57:54.527Z,37.60
2018-08-18T12:02:38.131Z,42.00
2018-08-18T12:07:21.577Z,41.37
2018-08-18T12:12:05.026Z,38.44
2018-08-18T12:16:48.380Z,39.63
2018-08-18T12:21:36.919Z,38.98
2018-08-18T12:26:22.681Z,38.86
2018-08-18T12:31:12.589Z,33.83
2018-08-18T12:35:56.105Z,38.94
2018-08-18T12:40:39.573Z,38.20
2018-08-18T12:45:23.184Z,34.89
2018-08-18T12:50:06.598Z,33.03
2018-08-18T12:54:50.090Z,30.07
2018-08-18T12:59:33.638Z,32.23
2018-08-18T13:04:19.083Z,34.45
2018-08-18T13:09:02.985Z,33.57
2018-08-18T13:13:47.006Z,31.84
2018-08-18T13:18:34.917Z,30.29
2018-08-18T13:23:22.661Z,32.78
2018-08-18T13:28:06.978Z,32.08
2018-08-18T13:32:51.878Z,31.99
2018-08-18T13:37:35.844Z,31.62
2018-08-18T13:42:26.991Z,31.64
2018-08-18T13:47:10.295Z,33.46
2018-08-18T13:51:53.734Z,32.53
2018-08-18T13:56:37.375Z,31.67
2018-08-18T14:01:42.623Z,32.66
2018-08-18T14:06:26.255Z,34.57
2018-08-18T14:11:09.948Z,31.61
2018-08-18T14:15:59.688Z,34.77
2018-08-18T14:20:57.376Z,34.76
2018-08-18T14:25:41.139Z,36.03
2018-08-18T14:30:24.577Z,36.74
2018-08-18T14:35:08.123Z,36.48
2018-08-18T14:39:52.403Z,37.61
2018-08-18T14:44:36.612Z,38.83
2018-08-18T14:49:20.015Z,40.20
2018-08-18T14:54:03.804Z,39.04
2018-08-18T14:58:47.959Z,41.50
2018-08-18T15:03:31.900Z,42.23
2018-08-18T15:08:15.394Z,42.83
2018-08-18T15:13:00.788Z,44.09
2018-08-18T15:17:44.226Z,45.82
2018-08-18T15:22:27.988Z,45.04
2018-08-18T15:27:11.421Z,45.23
2018-08-18T15:31:56.625Z,43.07
2018-08-18T15:36:40.126Z,43.95
2018-08-18T15:41:25.297Z,44.65
2018-08-18T15:46:08.684Z,45.86
2018-08-18T15:50:52.098Z,43.72
2018-08-18T15:55:35.655Z,43.47
2018-08-18T16:00:31.169Z,43.66
2018-08-18T16:05:14.660Z,44.66
2018-08-18T16:09:59.135Z,45.61
2018-08-18T16:14:42.739Z,46.24
2018-08-18T16:19:26.400Z,46.15
2018-08-18T16:24:14.180Z,47.13
2018-08-18T16:28:57.564Z,46.38
2018-08-18T16:33:42.078Z,48.01
2018-08-18T16:38:25.545Z,46.78
2018-08-18T16:43:13.959Z,47.90
2018-08-18T16:47:57.450Z,48.41
2018-08-18T16:52:41.283Z,48.50
2018-08-18T16:57:24.809Z,49.28
2018-08-18T17:02:21.610Z,49.76
2018-08-18T17:07:15.526Z,49.57
2018-08-18T17:12:11.787Z,49.13
2018-08-18T17:16:55.332Z,50.69
2018-08-18T17:21:39.960Z,50.65
2018-08-18T17:26:23.455Z,51.11
2018-08-18T17:31:07.430Z,52.80
2018-08-18T17:35:51.520Z,52.95
2018-08-18T17:40:35.989Z,53.62
2018-08-18T17:46:52.093Z,52.76
2018-08-18T17:51:36.429Z,52.40
2018-08-18T17:56:19.875Z,51.39
2018-08-18T18:01:05.944Z,50.96
2018-08-18T18:05:58.497Z,51.69
2018-08-18T18:10:42.389Z,51.13
2018-08-18T18:15:39.436Z,55.28
2018-08-18T18:20:24.226Z,54.58
2018-08-18T18:25:15.483Z,53.54
2018-08-18T18:30:32.825Z,51.53
2018-08-18T18:35:18.027Z,52.52
2018-08-18T18:40:14.508Z,51.04
2018-08-18T18:44:59.049Z,52.94
2018-08-18T18:49:45.970Z,52.79
2018-08-18T18:54:29.331Z,51.76
2018-08-18T18:59:12.894Z,51.10
2018-08-18T19:03:56.450Z,50.18
2018-08-18T19:09:03.620Z,48.60
2018-08-18T19:13:47.101Z,49.44
2018-08-18T19:18:30.723Z,49.33
2018-08-18T19:23:17.735Z,48.35
2018-08-18T19:28:01.842Z,48.00
2018-08-18T19:32:46.382Z,47.27
2018-08-18T19:37:31.088Z,47.84
2018-08-18T19:42:16.110Z,47.98
2018-08-18T19:46:59.703Z,48.52
2018-08-18T19:51:43.373Z,48.24
2018-08-18T19:56:26.861Z,49.22
2018-08-18T20:01:10.287Z,50.58
2018-08-18T20:05:53.907Z,49.90
2018-08-18T20:10:48.492Z,50.04
2018-08-18T20:15:32.147Z,50.58
2018-08-18T20:20:24.271Z,52.22
2018-08-18T20:25:07.884Z,52.37
2018-08-18T20:29:52.599Z,53.17
2018-08-18T20:34:36.584Z,54.56
2018-08-18T20:39:20.986Z,54.18
2018-08-18T20:44:04.533Z,54.78
2018-08-18T20:48:48.139Z,55.06
2018-08-18T20:53:31.581Z,54.90
2018-08-18T20:58:14.943Z,55.80
2018-08-18T21:02:58.627Z,55.94
2018-08-18T21:07:42.048Z,55.52
2018-08-18T21:12:35.879Z,57.38
2018-08-18T21:17:19.278Z,57.04
2018-08-18T21:22:04.588Z,56.71
2018-08-18T21:26:48.204Z,57.02
2018-08-18T21:31:33.812Z,57.07
2018-08-18T21:36:17.442Z,57.75
2018-08-18T21:41:00.938Z,57.56
2018-08-18T21:45:44.509Z,57.01
2018-08-18T21:50:28.029Z,57.68
2018-08-18T21:55:11.481Z,57.28
2018-08-18T21:59:59.189Z,57.21
2018-08-18T22:04:42.772Z,57.25
2018-08-18T22:09:29.516Z,56.58
2018-08-18T22:14:15.471Z,56.82
2018-08-18T22:19:03.508Z,57.10
2018-08-18T22:23:46.997Z,55.67
2018-08-18T22:28:30.420Z,57.49
2018-08-18T22:33:13.918Z,57.91
2018-08-18T22:37:57.291Z,58.13
2018-08-18T22:42:41.068Z,59.40
2018-08-18T22:47:24.664Z,59.48
2018-08-18T22:52:08.062Z,59.39
2018-08-18T22:56:56.870Z,57.60
2018-08-18T23:01:40.289Z,57.36
2018-08-18T23:06:23.597Z,57.29
2018-08-18T23:11:08.061Z,56.51
2018-08-18T23:15:51.500Z,55.43
2018-08-18T23:20:35.064Z,54.07
2018-08-18T23:25:18.476Z,53.25
2018-08-18T23:30:02.882Z,54.00
2018-08-18T23:34:46.076Z,53.44
2018-08-18T23:39:29.642Z,53.65
2018-08-18T23:44:12.853Z,53.29
2018-08-18T23:48:56.472Z,52.38
2018-08-18T23:53:39.879Z,52.37
2018-08-18T23:58:23.520Z,53.37
